Big Bend, CA (96011)

6:09 PM PDT on September 23, 2014 (GMT -0700)
RAWS OAK MOUNTAIN CA US | Change Station
CLOSE
Current Station
Personal Weather Station
Location: Big Bend, CA
Elevation: 2646 ft
Nearby Weather Stations

Elev 2646 ft 41.01 °N, 121.98 °W | Updated 43 minutes ago

Clear
Clear
79 °F
Feels Like 78 °F
N
6
Wind Variable Wind from West
Gusts 16.0 mph

Today
High -- | Low -- °F
--% Chance of Precip.
Yesterday
High -- | Low -- °F
Precip. -- in
6:56 AM 7:03 PM
Waning Crescent, 0% visible
Pressure 29.96 in
Visibility 10.0 miles
Clouds Clear
Heat Index 78 °F
Dew Point 36 °F
Humidity 21%
Rainfall 0.00 in
Snow Depth 0 in , 0 in
UV 1 out of 12
Pollen 6.00 out of 12
Air Quality Not available.
Flu Activity Not available.
METAR KMHS 240056Z AUTO 00000KT 10SM CLR 21/03 A2998 RMK AO2 SLP144 T02110033

More Conditions Fewer Conditions

Pressure 29.96 in
Visibility 10.0 miles
Clouds Clear
Heat Index 78 °F
Dew Point 36 °F
Humidity 21%
Rainfall 0.00 in
Snow Depth 0 in , 0 in
UV 1 out of 12
Pollen 6.00 out of 12
Air Quality Not available.
Flu Activity Not available.
METAR KMHS 240056Z AUTO 00000KT 10SM CLR 21/03 A2998 RMK AO2 SLP144 T02110033

More Conditions Fewer Conditions

10-Day Weather Forecast

Almanac

Astronomy

Sep. 23, 2014 Rise Set
Actual Time 6:56 AM PDT 7:03 PM PDT
Civil Twilight 6:29 AM PDT 7:30 PM PDT
Nautical Twilight 5:57 AM PDT 8:02 PM PDT
Astronomical Twilight 5:24 AM PDT 8:35 PM PDT
Moon 6:25 AM PDT (9/23) 6:44 PM PDT (9/23)
Length of Visible Light 13h 01m
Length of Day
12h 06m
Tomorrow will be 2m 43s shorter.
Waning Crescent, 0% of the Moon is Illuminated
Today
Waning Crescent
Sep 24
New
Oct 1
First Quarter
Oct 8
Full
Oct 15
Last Quarter

Today's Extremes

State Highs State Lows

Community

WunderPhotos

Upload Photos

1,755,834 photos uploaded!

Nearby

Snow Depth

Station Depth Elevation
Summit Meadow 0 in 9122 ft
Adin Mountain 0 in 6200 ft
CSS Lab 2 in 6900 ft

Earthquake Activity

City Distance Mag. Time & Date
No recent earthquake activity has been reported nearby.
Minimum magnitude displayed is 2.5.

Coastal Water Temperatures

Place Temperature
No Stations Reporting

Nearby Weather Stations